createdAt,value
2022-12-25T00:01:38.462Z,6.02
2022-12-25T00:04:05.762Z,6.10
2022-12-25T00:06:32.943Z,6.13
2022-12-25T00:09:00.135Z,6.15
2022-12-25T00:11:27.593Z,6.18
2022-12-25T00:13:54.801Z,6.05
2022-12-25T00:16:25.704Z,6.16
2022-12-25T00:18:54.046Z,6.07
2022-12-25T00:21:22.162Z,6.02
2022-12-25T00:23:54.948Z,6.10
2022-12-25T00:26:23.013Z,6.14
2022-12-25T00:28:55.411Z,6.13
2022-12-25T00:31:24.307Z,6.09
2022-12-25T00:33:52.331Z,6.10
2022-12-25T00:36:22.500Z,6.02
2022-12-25T00:38:49.737Z,6.00
2022-12-25T00:41:40.965Z,6.08
2022-12-25T00:44:10.802Z,5.91
2022-12-25T00:46:38.290Z,5.84
2022-12-25T00:49:06.326Z,5.67
2022-12-25T00:51:33.976Z,5.15
2022-12-25T00:54:01.396Z,4.81
2022-12-25T00:56:28.598Z,5.14
2022-12-25T00:58:56.083Z,5.06
2022-12-25T01:01:23.466Z,4.88
2022-12-25T01:03:50.684Z,5.02
2022-12-25T01:06:17.951Z,5.05
2022-12-25T01:09:05.075Z,5.27
2022-12-25T01:11:32.339Z,5.37
2022-12-25T01:13:59.586Z,5.42
2022-12-25T01:16:28.016Z,5.31
2022-12-25T01:18:56.026Z,5.19
2022-12-25T01:21:23.826Z,5.29
2022-12-25T01:23:52.786Z,5.47
2022-12-25T01:26:26.114Z,5.61
2022-12-25T01:28:54.025Z,5.59
2022-12-25T01:31:24.365Z,5.65
2022-12-25T01:33:52.943Z,5.57
2022-12-25T01:36:25.653Z,5.58
2022-12-25T01:38:54.148Z,5.51
2022-12-25T01:41:24.364Z,5.41
2022-12-25T01:44:08.936Z,5.47
2022-12-25T01:46:36.661Z,5.31
2022-12-25T01:49:09.584Z,5.52
2022-12-25T01:52:14.922Z,5.36
2022-12-25T01:55:04.061Z,5.52
2022-12-25T01:57:37.631Z,5.47
2022-12-25T02:00:07.596Z,5.14
2022-12-25T02:02:36.158Z,4.77
2022-12-25T02:05:12.017Z,4.68
2022-12-25T02:07:41.306Z,4.88
2022-12-25T02:10:11.564Z,5.25
2022-12-25T02:12:39.870Z,5.31
2022-12-25T02:15:13.824Z,5.42
2022-12-25T02:18:11.441Z,4.62
2022-12-25T02:21:09.077Z,5.02
2022-12-25T02:23:57.787Z,5.03
2022-12-25T02:26:50.462Z,4.85
2022-12-25T02:29:29.071Z,4.96
2022-12-25T02:32:15.681Z,5.13
2022-12-25T02:35:05.813Z,5.04
2022-12-25T02:38:01.213Z,5.35
2022-12-25T02:40:43.122Z,4.89
2022-12-25T02:43:46.917Z,4.83
2022-12-25T02:46:37.692Z,4.67
2022-12-25T02:49:34.446Z,4.94
2022-12-25T02:52:38.680Z,4.83
2022-12-25T02:55:36.295Z,4.83
2022-12-25T02:58:30.204Z,4.92
2022-12-25T03:01:25.125Z,4.89
2022-12-25T03:04:14.762Z,4.89
2022-12-25T03:07:00.340Z,4.82
2022-12-25T03:09:54.441Z,4.50
2022-12-25T03:13:01.625Z,4.37
2022-12-25T03:15:47.630Z,4.20
2022-12-25T03:18:20.016Z,4.35
2022-12-25T03:21:05.826Z,4.30
2022-12-25T03:23:54.033Z,4.14
2022-12-25T03:26:39.990Z,3.91
2022-12-25T03:29:07.133Z,4.53
2022-12-25T03:31:48.270Z,4.51
2022-12-25T03:35:16.784Z,4.61
2022-12-25T03:38:51.659Z,4.62
2022-12-25T03:41:59.309Z,4.38
2022-12-25T03:45:14.993Z,4.60
2022-12-25T03:48:07.284Z,4.66
2022-12-25T03:51:12.998Z,4.84
2022-12-25T03:54:08.077Z,4.59
2022-12-25T03:56:56.660Z,4.86
2022-12-25T03:59:43.047Z,4.49
2022-12-25T04:02:29.015Z,4.80
2022-12-25T04:05:14.682Z,4.90
2022-12-25T04:08:00.255Z,5.06
2022-12-25T04:10:46.292Z,4.51
2022-12-25T04:13:31.785Z,4.52
2022-12-25T04:16:17.423Z,4.52
2022-12-25T04:19:03.532Z,4.55
2022-12-25T04:21:49.322Z,4.73
2022-12-25T04:24:34.930Z,4.62
2022-12-25T04:27:20.744Z,4.64
2022-12-25T04:30:06.200Z,4.57
2022-12-25T04:32:52.020Z,4.81
2022-12-25T04:35:37.957Z,5.01
2022-12-25T04:38:05.078Z,5.04
2022-12-25T04:40:33.423Z,4.58
2022-12-25T04:43:00.579Z,4.68
2022-12-25T04:45:27.774Z,4.51
2022-12-25T04:47:54.935Z,4.54
2022-12-25T04:50:22.096Z,4.40
2022-12-25T04:52:49.219Z,4.33
2022-12-25T04:55:16.400Z,4.33
2022-12-25T04:57:43.541Z,4.85
2022-12-25T05:00:11.410Z,5.01
2022-12-25T05:02:38.728Z,5.05
2022-12-25T05:05:06.334Z,5.11
2022-12-25T05:07:33.625Z,4.97
2022-12-25T05:10:00.812Z,4.53
2022-12-25T05:12:27.963Z,4.41
2022-12-25T05:14:55.113Z,4.34
2022-12-25T05:17:22.266Z,4.58
2022-12-25T05:19:49.418Z,4.72
2022-12-25T05:22:16.565Z,4.83
2022-12-25T05:24:43.676Z,4.85
2022-12-25T05:27:10.819Z,4.83
2022-12-25T05:29:37.977Z,4.96
2022-12-25T05:32:05.276Z,4.81
2022-12-25T05:34:32.435Z,4.78
2022-12-25T05:36:59.982Z,4.73
2022-12-25T05:39:27.134Z,4.65
2022-12-25T05:41:54.315Z,4.83
2022-12-25T05:44:21.530Z,4.54
2022-12-25T05:46:48.806Z,4.93
2022-12-25T05:49:16.428Z,4.94
2022-12-25T05:51:43.693Z,5.03
2022-12-25T05:54:10.842Z,5.19
2022-12-25T05:56:38.492Z,5.08
2022-12-25T05:59:05.749Z,5.16
2022-12-25T06:01:33.046Z,5.07
2022-12-25T06:04:00.412Z,5.04
2022-12-25T06:06:27.615Z,4.95
2022-12-25T06:08:55.262Z,5.14
2022-12-25T06:11:22.934Z,5.20
2022-12-25T06:13:52.042Z,5.25
2022-12-25T06:16:19.620Z,4.99
2022-12-25T06:18:52.039Z,4.87
2022-12-25T06:21:19.302Z,5.09
2022-12-25T06:23:46.590Z,5.13
2022-12-25T06:26:19.849Z,5.22
2022-12-25T06:28:47.545Z,5.19
2022-12-25T06:31:22.082Z,5.33
2022-12-25T06:33:49.581Z,5.19
2022-12-25T06:36:31.902Z,5.35
2022-12-25T06:39:03.550Z,5.24
2022-12-25T06:41:31.263Z,5.28
2022-12-25T06:44:07.302Z,5.09
2022-12-25T06:46:38.236Z,5.14
2022-12-25T06:49:05.959Z,5.03
2022-12-25T06:51:33.846Z,5.03
2022-12-25T06:54:04.179Z,5.07
2022-12-25T06:56:33.742Z,5.36
2022-12-25T06:59:05.459Z,5.45
2022-12-25T07:01:48.846Z,5.47
2022-12-25T07:04:38.708Z,5.46
2022-12-25T07:07:09.358Z,5.31
2022-12-25T07:09:39.476Z,5.47
2022-12-25T07:12:19.937Z,5.26
2022-12-25T07:14:50.319Z,5.31
2022-12-25T07:17:18.383Z,5.51
2022-12-25T07:19:49.366Z,5.10
2022-12-25T07:22:17.360Z,5.12
2022-12-25T07:24:44.815Z,5.10
2022-12-25T07:27:12.124Z,5.07
2022-12-25T07:29:39.279Z,5.09
2022-12-25T07:32:06.964Z,5.02
2022-12-25T07:34:34.195Z,5.20
2022-12-25T07:37:01.365Z,5.33
2022-12-25T07:39:28.901Z,5.16
2022-12-25T07:41:56.155Z,5.20
2022-12-25T07:44:23.301Z,5.15
2022-12-25T07:46:50.916Z,5.06
2022-12-25T07:49:18.911Z,5.17
2022-12-25T07:51:46.063Z,5.11
2022-12-25T07:54:13.241Z,5.16
2022-12-25T07:56:40.613Z,5.05
2022-12-25T07:59:07.793Z,5.00
2022-12-25T08:01:35.241Z,5.11
2022-12-25T08:04:03.051Z,5.11
2022-12-25T08:06:33.750Z,5.20
2022-12-25T08:09:11.097Z,5.25
2022-12-25T08:11:39.499Z,5.37
2022-12-25T08:14:09.037Z,4.81
2022-12-25T08:16:39.601Z,5.08
2022-12-25T08:19:08.173Z,5.30
2022-12-25T08:21:35.295Z,5.31
2022-12-25T08:24:03.194Z,5.37
2022-12-25T08:26:30.645Z,5.36
2022-12-25T08:28:57.783Z,5.32
2022-12-25T08:31:29.272Z,5.28
2022-12-25T08:34:09.777Z,5.46
2022-12-25T08:36:37.894Z,5.36
2022-12-25T08:39:05.377Z,5.43
2022-12-25T08:41:32.515Z,5.34
2022-12-25T08:43:59.733Z,5.68
2022-12-25T08:46:27.021Z,5.79
2022-12-25T08:48:54.330Z,6.10
2022-12-25T08:51:23.318Z,5.97
2022-12-25T08:53:53.257Z,6.22
2022-12-25T08:56:20.718Z,6.43
2022-12-25T08:58:47.920Z,6.08
2022-12-25T09:01:15.158Z,6.34
2022-12-25T09:03:43.410Z,6.09
2022-12-25T09:06:15.136Z,6.09
2022-12-25T09:08:48.617Z,6.19
2022-12-25T09:11:19.640Z,6.00
2022-12-25T09:13:47.665Z,6.19
2022-12-25T09:16:20.292Z,6.28
2022-12-25T09:18:48.540Z,6.26
2022-12-25T09:21:17.332Z,6.04
2022-12-25T09:23:45.142Z,5.99
2022-12-25T09:26:16.865Z,5.88
2022-12-25T09:28:50.623Z,5.76
2022-12-25T09:31:20.189Z,5.75
2022-12-25T09:33:47.523Z,5.54
2022-12-25T09:36:15.162Z,5.74
2022-12-25T09:38:42.592Z,5.42
2022-12-25T09:41:16.930Z,5.67
2022-12-25T09:44:18.911Z,5.76
2022-12-25T09:47:10.611Z,6.07
2022-12-25T09:49:52.990Z,6.08
2022-12-25T09:52:30.272Z,6.35
2022-12-25T09:55:19.924Z,6.52
2022-12-25T09:57:55.513Z,6.35
2022-12-25T10:00:35.902Z,6.41
2022-12-25T10:03:39.372Z,6.23
2022-12-25T10:06:15.565Z,6.28
2022-12-25T10:09:03.925Z,6.37
2022-12-25T10:12:24.651Z,6.43
2022-12-25T10:15:33.595Z,6.45
2022-12-25T10:18:28.079Z,6.53
2022-12-25T10:20:58.603Z,6.48
2022-12-25T10:23:35.723Z,6.40
2022-12-25T10:26:11.872Z,6.46
2022-12-25T10:28:44.730Z,6.31
2022-12-25T10:31:21.419Z,6.30
2022-12-25T10:33:51.485Z,6.61
2022-12-25T10:36:24.281Z,6.70
2022-12-25T10:38:52.355Z,6.27
2022-12-25T10:41:38.268Z,6.18
2022-12-25T10:44:20.469Z,6.22
2022-12-25T10:46:51.262Z,6.22
2022-12-25T10:49:22.989Z,6.24
2022-12-25T10:51:51.075Z,6.25
2022-12-25T10:54:35.641Z,6.25
2022-12-25T10:57:09.932Z,6.32
2022-12-25T10:59:50.631Z,6.38
2022-12-25T11:02:26.137Z,6.61
2022-12-25T11:05:29.363Z,6.45
2022-12-25T11:08:00.150Z,6.50
2022-12-25T11:10:42.562Z,6.69
2022-12-25T11:13:27.221Z,6.84
2022-12-25T11:16:25.023Z,6.91
2022-12-25T11:18:55.144Z,6.81
2022-12-25T11:21:32.851Z,6.83
2022-12-25T11:24:07.173Z,6.92
2022-12-25T11:26:51.022Z,7.09
2022-12-25T11:29:46.379Z,6.99
2022-12-25T11:32:24.071Z,6.90
2022-12-25T11:34:51.551Z,7.01
2022-12-25T11:37:30.772Z,6.96
2022-12-25T11:39:58.334Z,6.89
2022-12-25T11:42:45.161Z,6.93
2022-12-25T11:45:19.635Z,6.91
2022-12-25T11:47:59.778Z,7.08
2022-12-25T11:50:43.618Z,7.08
2022-12-25T11:53:27.912Z,7.22
2022-12-25T11:56:08.014Z,7.32
2022-12-25T11:58:46.102Z,7.44
2022-12-25T12:01:51.030Z,7.41
2022-12-25T12:04:42.575Z,7.43
2022-12-25T12:07:29.129Z,7.36
2022-12-25T12:10:21.555Z,7.48
2022-12-25T12:13:15.492Z,7.53
2022-12-25T12:15:47.245Z,7.57
2022-12-25T12:18:21.849Z,7.57
2022-12-25T12:21:22.560Z,7.61
2022-12-25T12:24:17.361Z,7.61
2022-12-25T12:26:58.842Z,7.66
2022-12-25T12:29:38.755Z,7.78
2022-12-25T12:32:40.307Z,7.81
2022-12-25T12:35:39.978Z,7.74
2022-12-25T12:38:23.317Z,7.70
2022-12-25T12:40:58.034Z,7.76
2022-12-25T12:43:38.857Z,7.75
2022-12-25T12:46:30.687Z,7.77
2022-12-25T12:49:29.165Z,7.77
2022-12-25T12:52:23.024Z,7.75
2022-12-25T12:55:04.866Z,7.77
2022-12-25T12:57:39.616Z,7.82
2022-12-25T13:00:21.121Z,7.87
2022-12-25T13:03:25.824Z,7.85
2022-12-25T13:06:29.734Z,7.86
2022-12-25T13:09:18.531Z,7.96
2022-12-25T13:11:46.042Z,7.96
2022-12-25T13:14:21.874Z,7.92
2022-12-25T13:16:54.048Z,7.92
2022-12-25T13:19:27.937Z,7.82
2022-12-25T13:22:02.366Z,7.81
2022-12-25T13:24:33.489Z,7.78
2022-12-25T13:27:20.651Z,7.76
2022-12-25T13:29:47.806Z,7.83
2022-12-25T13:32:24.054Z,7.77
2022-12-25T13:34:53.076Z,7.89
2022-12-25T13:37:25.331Z,7.94
2022-12-25T13:40:00.183Z,7.84
2022-12-25T13:42:33.072Z,7.80
2022-12-25T13:45:24.478Z,7.74
2022-12-25T13:47:55.459Z,7.68
2022-12-25T13:50:32.015Z,7.73
2022-12-25T13:53:16.265Z,7.73
2022-12-25T13:55:54.437Z,7.83
2022-12-25T13:58:33.379Z,7.70
2022-12-25T14:01:02.848Z,7.70
2022-12-25T14:03:46.247Z,7.69
2022-12-25T14:06:24.305Z,7.70
2022-12-25T14:08:54.968Z,7.70
2022-12-25T14:11:25.715Z,7.78
2022-12-25T14:14:00.023Z,7.73
2022-12-25T14:16:28.182Z,7.70
2022-12-25T14:18:59.735Z,7.69
2022-12-25T14:21:33.225Z,7.70
2022-12-25T14:24:00.727Z,7.75
2022-12-25T14:26:31.778Z,7.68
2022-12-25T14:29:04.850Z,7.70
2022-12-25T14:31:33.563Z,7.67
2022-12-25T14:34:04.013Z,7.65
2022-12-25T14:36:33.972Z,7.67
2022-12-25T14:39:06.188Z,7.65
2022-12-25T14:41:41.073Z,7.59
2022-12-25T14:44:36.740Z,7.62
2022-12-25T14:47:18.520Z,7.59
2022-12-25T14:49:47.511Z,7.64
2022-12-25T14:52:41.641Z,7.62
2022-12-25T14:55:21.464Z,7.66
2022-12-25T14:57:55.417Z,7.68
2022-12-25T15:00:27.121Z,7.67
2022-12-25T15:02:57.949Z,7.68
2022-12-25T15:05:37.455Z,7.64
2022-12-25T15:08:12.402Z,7.66
2022-12-25T15:13:29.308Z,7.63
2022-12-25T15:16:13.395Z,7.66
2022-12-25T15:18:45.230Z,7.73
2022-12-25T15:21:31.131Z,7.73
2022-12-25T15:24:00.027Z,7.72
2022-12-25T15:26:31.349Z,7.77
2022-12-25T15:28:59.327Z,7.75
2022-12-25T15:31:32.773Z,7.71
2022-12-25T15:34:04.083Z,7.69
2022-12-25T15:36:32.156Z,7.68
2022-12-25T15:38:59.763Z,7.74
2022-12-25T15:41:52.077Z,7.68
2022-12-25T15:44:20.014Z,7.68
2022-12-25T15:46:47.599Z,7.67
2022-12-25T15:49:15.905Z,7.70
2022-12-25T15:51:44.450Z,7.67
2022-12-25T15:54:11.826Z,7.69
2022-12-25T15:56:50.956Z,7.73
2022-12-25T15:59:20.353Z,7.67
2022-12-25T16:01:53.406Z,7.73
2022-12-25T16:04:22.086Z,7.74
2022-12-25T16:06:50.687Z,7.76
2022-12-25T16:09:20.263Z,7.74
2022-12-25T16:11:49.252Z,7.80
2022-12-25T16:14:16.509Z,7.81
2022-12-25T16:16:43.752Z,7.84
2022-12-25T16:19:10.916Z,7.88
2022-12-25T16:21:42.835Z,7.82
2022-12-25T16:24:10.694Z,7.86
2022-12-25T16:26:37.874Z,7.89
2022-12-25T16:29:07.501Z,7.88
2022-12-25T16:31:37.256Z,7.92
2022-12-25T16:34:06.432Z,7.91
2022-12-25T16:36:36.206Z,7.91
2022-12-25T16:39:04.641Z,7.94
2022-12-25T16:41:32.213Z,7.95
2022-12-25T16:44:02.968Z,7.95
2022-12-25T16:46:30.225Z,7.95
2022-12-25T16:48:57.487Z,7.91
2022-12-25T16:51:24.659Z,7.89
2022-12-25T16:53:53.156Z,7.91
2022-12-25T16:56:28.336Z,7.96
2022-12-25T16:58:57.889Z,7.95
2022-12-25T17:01:25.811Z,7.96
2022-12-25T17:03:53.344Z,7.95
2022-12-25T17:06:25.719Z,7.95
2022-12-25T17:08:56.830Z,7.98
2022-12-25T17:11:27.379Z,8.00
2022-12-25T17:13:55.363Z,8.01
2022-12-25T17:16:27.229Z,8.12
2022-12-25T17:19:04.246Z,8.14
2022-12-25T17:21:35.360Z,8.04
2022-12-25T17:24:04.196Z,8.02
2022-12-25T17:26:32.646Z,8.12
2022-12-25T17:29:00.560Z,8.03
2022-12-25T17:31:28.492Z,8.04
2022-12-25T17:33:55.825Z,8.04
2022-12-25T17:36:23.805Z,8.14
2022-12-25T17:38:50.942Z,8.19
2022-12-25T17:41:19.805Z,8.13
2022-12-25T17:43:48.573Z,8.17
2022-12-25T17:46:19.470Z,8.15
2022-12-25T17:48:49.946Z,8.24
2022-12-25T17:51:24.162Z,8.22
2022-12-25T17:53:55.864Z,8.22
2022-12-25T17:56:24.914Z,8.18
2022-12-25T17:58:57.090Z,8.18
2022-12-25T18:01:27.687Z,8.16
2022-12-25T18:03:55.934Z,8.22
2022-12-25T18:06:26.215Z,8.23
2022-12-25T18:08:56.545Z,8.31
2022-12-25T18:11:29.263Z,8.21
2022-12-25T18:13:58.264Z,8.19
2022-12-25T18:16:27.366Z,8.21
2022-12-25T18:18:54.737Z,8.23
2022-12-25T18:21:22.765Z,8.24
2022-12-25T18:23:50.544Z,8.26
2022-12-25T18:26:20.327Z,8.26
2022-12-25T18:28:49.454Z,8.25
2022-12-25T18:31:22.055Z,8.31
2022-12-25T18:33:51.466Z,8.29
2022-12-25T18:36:23.121Z,8.27
2022-12-25T18:38:52.545Z,8.26
2022-12-25T18:41:22.241Z,8.26
2022-12-25T18:43:53.619Z,8.32
2022-12-25T18:46:27.548Z,8.29
2022-12-25T18:48:56.665Z,8.35
2022-12-25T18:51:24.615Z,8.25
2022-12-25T18:53:51.849Z,8.21
2022-12-25T18:56:19.704Z,8.20
2022-12-25T18:58:47.313Z,8.20
2022-12-25T19:01:22.338Z,8.20
2022-12-25T19:03:57.149Z,8.22
2022-12-25T19:06:29.749Z,8.20
2022-12-25T19:08:58.014Z,8.22
2022-12-25T19:11:25.205Z,8.27
2022-12-25T19:13:52.393Z,8.28
2022-12-25T19:16:19.598Z,8.38
2022-12-25T19:18:46.804Z,8.42
2022-12-25T19:21:13.973Z,8.40
2022-12-25T19:23:41.152Z,8.44
2022-12-25T19:26:10.735Z,8.36
2022-12-25T19:28:39.286Z,8.39
2022-12-25T19:31:09.358Z,8.46
2022-12-25T19:33:39.863Z,8.44
2022-12-25T19:36:14.195Z,8.48
2022-12-25T19:38:42.383Z,8.53
2022-12-25T19:41:17.025Z,8.60
2022-12-25T19:43:47.597Z,8.72
2022-12-25T19:46:19.874Z,8.75
2022-12-25T19:48:47.435Z,8.71
2022-12-25T19:51:21.229Z,8.74
2022-12-25T19:53:48.448Z,8.77
2022-12-25T19:56:16.675Z,8.78
2022-12-25T19:58:45.041Z,8.83
2022-12-25T20:01:16.760Z,8.86
2022-12-25T20:03:47.680Z,8.89
2022-12-25T20:06:26.401Z,8.91
2022-12-25T20:08:58.034Z,8.99
2022-12-25T20:11:27.474Z,9.01
2022-12-25T20:13:55.254Z,9.00
2022-12-25T20:16:24.430Z,9.06
2022-12-25T20:18:53.301Z,9.11
2022-12-25T20:21:23.418Z,9.11
2022-12-25T20:23:53.039Z,9.18
2022-12-25T20:26:25.506Z,9.20
2022-12-25T20:28:53.241Z,9.23
2022-12-25T20:31:24.067Z,9.30
2022-12-25T20:33:51.211Z,9.29
2022-12-25T20:36:18.869Z,9.33
2022-12-25T20:38:46.031Z,9.35
2022-12-25T20:41:29.565Z,9.38
2022-12-25T20:43:57.195Z,9.41
2022-12-25T20:46:25.897Z,9.39
2022-12-25T20:48:53.921Z,9.44
2022-12-25T20:51:25.066Z,9.46
2022-12-25T20:53:53.608Z,9.46
2022-12-25T20:56:24.831Z,9.49
2022-12-25T20:58:58.385Z,9.54
2022-12-25T21:01:28.082Z,9.57
2022-12-25T21:03:56.411Z,9.64
2022-12-25T21:06:24.037Z,9.58
2022-12-25T21:08:51.189Z,9.64
2022-12-25T21:11:18.543Z,9.65
2022-12-25T21:13:46.622Z,9.64
2022-12-25T21:16:18.610Z,9.60
2022-12-25T21:18:46.303Z,9.57
2022-12-25T21:21:14.873Z,9.64
2022-12-25T21:23:42.103Z,9.65
2022-12-25T21:26:25.852Z,9.68
2022-12-25T21:28:57.161Z,9.67
2022-12-25T21:31:25.601Z,9.69
2022-12-25T21:33:55.063Z,9.71
2022-12-25T21:36:32.013Z,9.67
2022-12-25T21:39:07.749Z,9.69
2022-12-25T21:41:37.906Z,9.67
2022-12-25T21:44:06.494Z,9.69
2022-12-25T21:46:34.548Z,9.74
2022-12-25T21:49:01.792Z,9.73
2022-12-25T21:51:51.720Z,9.67
2022-12-25T21:54:23.465Z,9.74
2022-12-25T21:56:50.847Z,9.73
2022-12-25T21:59:21.635Z,9.75
2022-12-25T22:01:51.298Z,9.73
2022-12-25T22:04:21.629Z,9.75
2022-12-25T22:07:07.508Z,9.78
2022-12-25T22:09:35.066Z,9.78
2022-12-25T22:12:21.421Z,9.78
2022-12-25T22:14:56.624Z,9.76
2022-12-25T22:17:47.145Z,9.80
2022-12-25T22:20:24.931Z,9.86
2022-12-25T22:22:53.032Z,9.79
2022-12-25T22:25:21.153Z,9.83
2022-12-25T22:27:49.825Z,9.82
2022-12-25T22:30:28.054Z,9.86
2022-12-25T22:32:55.912Z,9.85
2022-12-25T22:35:23.870Z,9.86
2022-12-25T22:37:51.366Z,9.81
2022-12-25T22:40:19.999Z,9.78
2022-12-25T22:42:51.430Z,9.80
2022-12-25T22:45:20.469Z,9.81
2022-12-25T22:47:47.648Z,9.83
2022-12-25T22:50:15.840Z,9.81
2022-12-25T22:52:45.591Z,9.84
2022-12-25T22:55:17.903Z,9.87
2022-12-25T22:57:45.061Z,9.90
2022-12-25T23:00:13.662Z,9.91
2022-12-25T23:02:41.027Z,9.92
2022-12-25T23:05:08.658Z,9.93
2022-12-25T23:07:35.928Z,9.94
2022-12-25T23:10:04.857Z,9.96
2022-12-25T23:12:50.897Z,9.93
2022-12-25T23:15:18.478Z,9.96
2022-12-25T23:18:04.199Z,9.99
2022-12-25T23:20:51.451Z,9.99
2022-12-25T23:23:37.450Z,9.98
2022-12-25T23:26:07.652Z,10.03
2022-12-25T23:29:00.276Z,10.01
2022-12-25T23:31:39.430Z,10.02
2022-12-25T23:34:07.823Z,9.99
2022-12-25T23:36:35.566Z,10.01
2022-12-25T23:39:09.548Z,9.99
2022-12-25T23:41:42.556Z,9.97
2022-12-25T23:44:13.528Z,10.03
2022-12-25T23:46:52.802Z,10.04
2022-12-25T23:49:25.560Z,10.09
2022-12-25T23:51:54.678Z,10.06
2022-12-25T23:54:26.909Z,10.10
2022-12-25T23:57:00.223Z,10.09
2022-12-25T23:59:30.157Z,10.13
